This is the latest recevied weather packets stored in our database for station/object OK2JF-6. If no packets are shown the sender has not sent any weather packets the latest 10 day(s).
| Time | Temp. | Humidity | Pressure | Rain* | Wind** | Luminosity | Snow |
|---|---|---|---|---|---|---|---|
| 1777881063 | 20.56° C | 45% | 1086.6 hPa | 0 mm | - | 241 W/m² | - |
| 1777881003 | 20.56° C | 45% | 1086.8 hPa | 0 mm | - | 250 W/m² | - |
| 1777880943 | 20° C | 45% | 1087 hPa | 0 mm | - | 271 W/m² | - |
| 1777880703 | 20° C | 45% | 1086.6 hPa | 0 mm | - | 269 W/m² | - |
| 1777880403 | 20° C | 46% | 1086.8 hPa | 0 mm | - | 320 W/m² | - |
| 1777879983 | 20° C | 46% | 1086.8 hPa | 0 mm | - | 268 W/m² | - |
| 1777879743 | 20.56° C | 46% | 1086.4 hPa | 0 mm | - | 197 W/m² | - |
| 1777879683 | 20° C | 46% | 1086.5 hPa | 0 mm | - | 246 W/m² | - |
| 1777879623 | 20° C | 46% | 1086.6 hPa | 0 mm | - | 258 W/m² | - |
| 1777878843 | 18.33° C | 50% | 1086.8 hPa | 0 mm | - | 272 W/m² | - |
| 1777878183 | 17.78° C | 50% | 1086.4 hPa | 0 mm | - | 174 W/m² | - |
| 1777877823 | 17.22° C | 50% | 1086.4 hPa | 0 mm | - | 195 W/m² | - |
| 1777877763 | 17.22° C | 51% | 1086.3 hPa | 0 mm | - | 208 W/m² | - |
| 1777877103 | 16.67° C | 52% | 1086.5 hPa | 0 mm | - | 209 W/m² | - |
| 1777876803 | 15.56° C | 55% | 1086.2 hPa | 0 mm | - | 192 W/m² | - |
| 1777876743 | 15.56° C | 55% | 1086.4 hPa | 0 mm | - | 207 W/m² | - |
| 1777876444 | 14.44° C | 57% | 1086.4 hPa | 0 mm | - | 203 W/m² | - |
| 1777876158 | 14.44° C | 57% | 1086.3 hPa | 0 mm | - | 173 W/m² | - |
| 1777875723 | 14.44° C | 56% | 1086.3 hPa | 0 mm | - | 132 W/m² | - |
| 1777875663 | 14.44° C | 56% | 1086.2 hPa | 0 mm | - | 125 W/m² | - |
| 1777875558 | 14.44° C | 56% | 1086.2 hPa | 0 mm | - | 133 W/m² | - |
| 1777875363 | 14.44° C | 56% | 1086.2 hPa | 0 mm | - | 127 W/m² | - |
| 1777875183 | 14.44° C | 57% | 1086 hPa | 0 mm | - | 152 W/m² | - |
| 1777875003 | 13.89° C | 57% | 1086.3 hPa | 0 mm | - | 197 W/m² | - |
| 1777874943 | 13.89° C | 58% | 1086.1 hPa | 0 mm | - | 200 W/m² | - |
* Rain latest hour (hover to see other rain measurements)
** Current wind speed in m/s (hover to see current wind gust speed)